Time;durP1;ratioP1;P1;durP2;ratioP2;P2;SDS_P1;SDS_P2;PMS_P1;PMS_P2;Temp;Humidity;BMP_temperature;BMP_pressure;BME280_temperature;BME280_humidity;BME280_pressure;Samples;Min_cycle;Max_cycle;Signal;HPM_P1;HPM_P2
2021/01/20 00:02:21;;;;;;;73.78;38.13;;;;;;;;;;10320159;28;20429;-60
2021/01/20 00:07:18;;;;;;;58.47;32.08;;;;;;;;;;10321587;28;20317;-60
2021/01/20 00:12:16;;;;;;;44.20;23.35;;;;;;;;;;10321806;28;20045;-60
2021/01/20 00:17:14;;;;;;;46.40;23.48;;;;;;;;;;10321257;28;20091;-59
2021/01/20 00:22:12;;;;;;;53.67;27.08;;;;;;;;;;10321471;28;20048;-60
2021/01/20 00:27:10;;;;;;;66.15;32.40;;;;;;;;;;10321039;28;20356;-61
2021/01/20 00:32:07;;;;;;;30.27;19.33;;;;;;;;;;10321105;28;20083;-60
2021/01/20 00:37:07;;;;;;;36.80;22.25;;;;;;;;;;10320841;28;20071;-59
2021/01/20 00:42:06;;;;;;;38.20;21.15;;;;;;;;;;10317708;28;20048;-59
2021/01/20 00:47:04;;;;;;;36.50;21.02;;;;;;;;;;10320348;28;20072;-60
2021/01/20 00:52:01;;;;;;;39.83;24.25;;;;;;;;;;10318449;28;20060;-60
2021/01/20 00:57:00;;;;;;;32.03;21.65;;;;;;;;;;10320011;28;20048;-59
2021/01/20 01:01:58;;;;;;;58.35;32.97;;;;;;;;;;10318042;28;20086;-60
2021/01/20 01:07:05;;;;;;;31.55;19.15;;;;;;;;;;10317423;28;20461;-60
2021/01/20 01:12:06;;;;;;;28.23;17.88;;;;;;;;;;10319487;28;20056;-60
2021/01/20 01:17:05;;;;;;;19.80;13.43;;;;;;;;;;10317175;28;20425;-60
2021/01/20 01:22:12;;;;;;;15.38;11.45;;;;;;;;;;10317187;28;20056;-61
2021/01/20 01:27:13;;;;;;;16.42;10.63;;;;;;;;;;10317093;28;20501;-59
2021/01/20 01:32:11;;;;;;;22.45;12.80;;;;;;;;;;10317165;28;20048;-59
2021/01/20 01:37:09;;;;;;;15.70;10.95;;;;;;;;;;10316539;28;20048;-58
2021/01/20 01:42:28;;;;;;;16.70;11.70;;;;;;;;;;10317025;28;20486;-60
2021/01/20 01:47:26;;;;;;;18.00;11.68;;;;;;;;;;10315694;28;20083;-60
2021/01/20 01:52:30;;;;;;;13.85;9.75;;;;;;;;;;10316710;28;20056;-59
2021/01/20 01:57:46;;;;;;;;;;;;;;;;;;10318687;28;20080;-59
2021/01/20 02:02:44;;;;;;;12.07;9.02;;;;;;;;;;10316684;28;20401;-59
2021/01/20 02:07:49;;;;;;;14.25;9.57;;;;;;;;;;10314797;28;20063;-59
2021/01/20 02:13:05;;;;;;;14.27;8.60;;;;;;;;;;10316417;28;20060;-59
2021/01/20 02:18:17;;;;;;;12.93;8.00;;;;;;;;;;10315481;28;20064;-58
2021/01/20 02:23:39;;;;;;;10.38;7.63;;;;;;;;;;10315167;28;20083;-60
2021/01/20 02:29:17;;;;;;;13.30;8.38;;;;;;;;;;10315520;28;20059;-60
2021/01/20 02:34:23;;;;;;;12.63;8.10;;;;;;;;;;10315319;28;20417;-59
2021/01/20 02:39:20;;;;;;;13.43;8.60;;;;;;;;;;10315661;28;20040;-59
2021/01/20 02:44:29;;;;;;;14.52;9.38;;;;;;;;;;10315187;28;20053;-59
2021/01/20 02:50:00;;;;;;;11.82;8.60;;;;;;;;;;10316184;28;20047;-59
2021/01/20 02:54:58;;;;;;;11.15;8.18;;;;;;;;;;10313468;28;20413;-60
2021/01/20 03:00:23;;;;;;;13.30;8.23;;;;;;;;;;10305539;28;20091;-59
2021/01/20 03:05:40;;;;;;;14.10;9.23;;;;;;;;;;10318290;28;20090;-59
2021/01/20 03:10:38;;;;;;;13.35;8.88;;;;;;;;;;10315865;28;20052;-59
2021/01/20 03:15:36;;;;;;;11.52;8.65;;;;;;;;;;10315918;28;20053;-59
2021/01/20 03:20:33;;;;;;;15.50;9.20;;;;;;;;;;10322222;28;20417;-59
2021/01/20 03:25:32;;;;;;;10.30;7.75;;;;;;;;;;10323567;28;20076;-60
2021/01/20 03:30:29;;;;;;;11.80;8.57;;;;;;;;;;10323653;28;20083;-59
2021/01/20 03:35:27;;;;;;;10.95;7.85;;;;;;;;;;10322703;28;20052;-59
2021/01/20 03:40:24;;;;;;;9.60;7.43;;;;;;;;;;10322742;28;20059;-61
2021/01/20 03:45:22;;;;;;;9.68;7.13;;;;;;;;;;10322560;28;20091;-58
2021/01/20 03:50:19;;;;;;;10.00;6.97;;;;;;;;;;10322190;28;20053;-59
2021/01/20 03:55:17;;;;;;;9.75;7.20;;;;;;;;;;10321968;28;20057;-58
2021/01/20 04:00:14;;;;;;;10.50;7.18;;;;;;;;;;10321763;28;20044;-56
2021/01/20 04:05:13;;;;;;;7.72;6.82;;;;;;;;;;10321580;28;20091;-57
2021/01/20 04:10:11;;;;;;;9.32;7.50;;;;;;;;;;10321410;28;20049;-59
2021/01/20 04:15:09;;;;;;;202.63;99.18;;;;;;;;;;10321583;28;20040;-59
2021/01/20 04:20:07;;;;;;;147.30;73.60;;;;;;;;;;10325317;28;20084;-58
2021/01/20 04:25:06;;;;;;;112.90;57.25;;;;;;;;;;10335866;28;20076;-59
2021/01/20 04:30:04;;;;;;;176.20;80.00;;;;;;;;;;10327015;28;20080;-59
2021/01/20 04:35:01;;;;;;;155.68;63.63;;;;;;;;;;10330239;28;20040;-59
2021/01/20 04:39:58;;;;;;;139.80;51.63;;;;;;;;;;10320313;28;20068;-58
2021/01/20 04:44:57;;;;;;;128.30;59.63;;;;;;;;;;10327968;28;20867;-59
2021/01/20 04:49:54;;;;;;;143.30;56.03;;;;;;;;;;10342768;28;20067;-61
2021/01/20 04:54:53;;;;;;;178.13;65.50;;;;;;;;;;10359061;28;20048;-58
2021/01/20 04:59:51;;;;;;;121.97;47.00;;;;;;;;;;10358710;28;20071;-60
2021/01/20 05:04:51;;;;;;;128.98;50.58;;;;;;;;;;10360712;28;20075;-59
2021/01/20 05:09:48;;;;;;;195.50;67.45;;;;;;;;;;10360404;28;20044;-59
2021/01/20 05:14:46;;;;;;;134.90;55.92;;;;;;;;;;10360063;28;20043;-58
2021/01/20 05:19:43;;;;;;;107.43;47.42;;;;;;;;;;10360237;28;20052;-57
2021/01/20 05:24:41;;;;;;;70.28;32.38;;;;;;;;;;10359740;28;20071;-59
2021/01/20 05:29:39;;;;;;;63.05;31.83;;;;;;;;;;10359251;28;20056;-60
2021/01/20 05:34:38;;;;;;;114.75;52.00;;;;;;;;;;10358910;28;20087;-60
2021/01/20 05:39:36;;;;;;;74.30;35.00;;;;;;;;;;10356872;28;20094;-60
2021/01/20 05:44:35;;;;;;;77.07;37.10;;;;;;;;;;10356742;28;20075;-60
2021/01/20 05:49:32;;;;;;;38.03;19.88;;;;;;;;;;10357226;28;20048;-59
2021/01/20 05:54:30;;;;;;;29.55;17.08;;;;;;;;;;10356965;28;20051;-59
2021/01/20 05:59:27;;;;;;;40.72;21.10;;;;;;;;;;10358297;28;20055;-59
2021/01/20 06:04:26;;;;;;;40.45;20.67;;;;;;;;;;10358206;28;20076;-58
2021/01/20 06:09:25;;;;;;;49.15;25.90;;;;;;;;;;10357900;28;20047;-59
2021/01/20 06:14:23;;;;;;;41.72;19.15;;;;;;;;;;10358023;28;20041;-59
2021/01/20 06:19:20;;;;;;;45.97;22.33;;;;;;;;;;10358040;28;20055;-58
2021/01/20 06:24:22;;;;;;;31.60;18.85;;;;;;;;;;10357130;28;20072;-59
2021/01/20 06:29:22;;;;;;;61.60;30.90;;;;;;;;;;10357657;28;20075;-59
2021/01/20 06:34:21;;;;;;;66.32;34.05;;;;;;;;;;10358102;28;20071;-59
2021/01/20 06:39:33;;;;;;;94.15;45.75;;;;;;;;;;10357281;28;20079;-59
2021/01/20 06:44:31;;;;;;;34.33;19.83;;;;;;;;;;10354871;28;20082;-60
2021/01/20 06:49:29;;;;;;;40.65;27.13;;;;;;;;;;10357204;28;20401;-59
2021/01/20 06:54:34;;;;;;;48.28;27.58;;;;;;;;;;10363429;28;20107;-59
2021/01/20 06:59:32;;;;;;;37.60;23.53;;;;;;;;;;10365835;28;20055;-60
2021/01/20 07:04:45;;;;;;;19.58;13.85;;;;;;;;;;10365162;28;20524;-59
2021/01/20 07:09:57;;;;;;;14.60;10.27;;;;;;;;;;10364972;28;20059;-59
2021/01/20 07:14:56;;;;;;;74.97;35.08;;;;;;;;;;10365002;28;20055;-59
2021/01/20 07:19:53;;;;;;;18.90;12.00;;;;;;;;;;10365171;28;20485;-59
2021/01/20 07:24:50;;;;;;;21.00;14.82;;;;;;;;;;10364611;28;20076;-60
2021/01/20 07:29:48;;;;;;;25.13;16.48;;;;;;;;;;10363693;28;20420;-59
2021/01/20 07:34:46;;;;;;;33.97;24.95;;;;;;;;;;10364066;28;20040;-59
2021/01/20 07:39:44;;;;;;;15.05;12.43;;;;;;;;;;10364046;28;20040;-59
2021/01/20 07:44:46;;;;;;;15.82;11.38;;;;;;;;;;10363577;28;20043;-59
2021/01/20 07:49:52;;;;;;;14.02;10.50;;;;;;;;;;10363709;28;20500;-59
2021/01/20 07:54:50;;;;;;;40.10;24.13;;;;;;;;;;10363069;28;20056;-59
2021/01/20 07:59:58;;;;;;;40.72;25.83;;;;;;;;;;10362732;28;20075;-59
2021/01/20 08:04:59;;;;;;;44.20;26.30;;;;;;;;;;10362252;28;20075;-59
2021/01/20 08:09:57;;;;;;;14.15;9.82;;;;;;;;;;10362934;28;20524;-59
2021/01/20 08:14:55;;;;;;;18.38;12.95;;;;;;;;;;10362830;28;20079;-59
2021/01/20 08:19:54;;;;;;;14.13;11.45;;;;;;;;;;10362700;28;20478;-60
2021/01/20 08:24:53;;;;;;;29.35;21.00;;;;;;;;;;10362100;28;20080;-60
2021/01/20 08:29:51;;;;;;;34.03;23.63;;;;;;;;;;10361950;28;20036;-60
2021/01/20 08:34:49;;;;;;;41.22;27.92;;;;;;;;;;10361307;28;20110;-60
2021/01/20 08:39:54;;;;;;;58.30;32.90;;;;;;;;;;10361634;28;20081;-60
2021/01/20 08:45:05;;;;;;;52.13;30.67;;;;;;;;;;10362041;28;20087;-60
2021/01/20 08:50:03;;;;;;;46.00;27.33;;;;;;;;;;10361092;28;20302;-60
2021/01/20 08:55:01;;;;;;;77.28;48.67;;;;;;;;;;10361061;28;20047;-60
2021/01/20 08:59:58;;;;;;;62.97;42.50;;;;;;;;;;10360800;28;20071;-60
2021/01/20 09:04:56;;;;;;;90.53;43.90;;;;;;;;;;10359990;28;20071;-60
2021/01/20 09:09:53;;;;;;;114.35;55.25;;;;;;;;;;10360382;28;20067;-60
2021/01/20 09:14:52;;;;;;;146.52;64.93;;;;;;;;;;10360188;28;20432;-60
2021/01/20 09:19:49;;;;;;;171.77;85.18;;;;;;;;;;10359927;28;20520;-60
2021/01/20 09:24:46;;;;;;;127.68;55.13;;;;;;;;;;10359824;28;20474;-59
2021/01/20 09:29:44;;;;;;;116.50;50.92;;;;;;;;;;10359683;28;20047;-59
2021/01/20 09:34:42;;;;;;;100.88;46.58;;;;;;;;;;10359732;28;20044;-60
2021/01/20 09:39:39;;;;;;;119.93;58.50;;;;;;;;;;10358586;28;20067;-60
2021/01/20 09:44:36;;;;;;;79.53;35.30;;;;;;;;;;10359013;28;20044;-60
2021/01/20 09:49:34;;;;;;;93.80;42.63;;;;;;;;;;10358809;28;20047;-60
2021/01/20 09:54:32;;;;;;;96.32;44.50;;;;;;;;;;10358855;28;20059;-61
2021/01/20 09:59:29;;;;;;;48.65;26.75;;;;;;;;;;10358513;28;20405;-59
2021/01/20 10:04:26;;;;;;;42.78;26.35;;;;;;;;;;10358467;28;20047;-57
2021/01/20 10:09:27;;;;;;;45.67;30.38;;;;;;;;;;10357914;28;20055;-58
2021/01/20 10:14:25;;;;;;;30.90;19.42;;;;;;;;;;10357733;28;20516;-57
2021/01/20 10:19:22;;;;;;;25.83;16.67;;;;;;;;;;10358085;28;20052;-61
2021/01/20 10:24:20;;;;;;;25.20;15.10;;;;;;;;;;10357800;28;20177;-61
2021/01/20 10:29:17;;;;;;;32.17;18.35;;;;;;;;;;10357042;28;20086;-60
2021/01/20 10:34:15;;;;;;;29.70;16.17;;;;;;;;;;10357515;28;20040;-61
2021/01/20 10:39:14;;;;;;;30.40;18.55;;;;;;;;;;10357348;28;20059;-61
2021/01/20 10:44:11;;;;;;;45.40;25.40;;;;;;;;;;10356782;28;20044;-62
2021/01/20 10:49:08;;;;;;;435.23;260.42;;;;;;;;;;10357555;28;20107;-60
2021/01/20 10:54:07;;;;;;;323.95;193.23;;;;;;;;;;10357490;28;20044;-60
2021/01/20 10:59:04;;;;;;;110.28;67.13;;;;;;;;;;10356683;28;20425;-60
2021/01/20 11:04:01;;;;;;;114.45;80.65;;;;;;;;;;10356931;28;20500;-60
2021/01/20 11:09:00;;;;;;;49.40;31.67;;;;;;;;;;10357075;28;20106;-61
2021/01/20 11:13:58;;;;;;;114.60;80.75;;;;;;;;;;10356475;28;20079;-61
2021/01/20 11:18:55;;;;;;;45.80;34.08;;;;;;;;;;10355519;28;20052;-61
2021/01/20 11:23:52;;;;;;;24.25;16.83;;;;;;;;;;10356183;28;20067;-60
2021/01/20 11:28:50;;;;;;;98.70;68.32;;;;;;;;;;10355672;28;20079;-60
2021/01/20 11:33:48;;;;;;;76.45;55.83;;;;;;;;;;10356154;28;20047;-60
2021/01/20 11:38:45;;;;;;;1348.50;714.65;;;;;;;;;;10357854;28;20417;-60
2021/01/20 11:43:44;;;;;;;321.50;158.88;;;;;;;;;;10363244;28;20520;-60
2021/01/20 11:48:42;;;;;;;81.15;33.90;;;;;;;;;;10363479;28;20067;-60
2021/01/20 11:53:41;;;;;;;511.90;204.27;;;;;;;;;;10362981;28;20200;-60
2021/01/20 11:58:38;;;;;;;413.38;150.50;;;;;;;;;;10362851;28;20040;-60
2021/01/20 12:03:36;;;;;;;399.00;142.70;;;;;;;;;;10362462;28;20090;-60
2021/01/20 12:08:33;;;;;;;588.88;232.48;;;;;;;;;;10362545;28;20068;-60
2021/01/20 12:13:31;;;;;;;444.50;188.45;;;;;;;;;;10362347;28;20052;-60
2021/01/20 12:18:30;;;;;;;215.68;89.07;;;;;;;;;;10361827;28;20083;-60
2021/01/20 12:23:27;;;;;;;283.30;123.22;;;;;;;;;;10362021;28;20405;-60
2021/01/20 12:28:25;;;;;;;275.88;113.78;;;;;;;;;;10361895;28;20048;-60
2021/01/20 12:33:23;;;;;;;232.95;93.10;;;;;;;;;;10361918;28;20078;-60
2021/01/20 12:38:20;;;;;;;371.90;123.30;;;;;;;;;;10361376;28;20485;-60
2021/01/20 12:43:18;;;;;;;669.22;261.25;;;;;;;;;;10361129;28;20055;-60
2021/01/20 12:48:15;;;;;;;329.63;122.10;;;;;;;;;;10361017;28;20076;-60
2021/01/20 12:53:14;;;;;;;162.35;64.20;;;;;;;;;;10360393;28;20493;-60
2021/01/20 12:58:13;;;;;;;293.23;98.25;;;;;;;;;;10360540;28;20413;-60
2021/01/20 13:03:10;;;;;;;96.47;41.05;;;;;;;;;;10360515;28;20040;-60
2021/01/20 13:08:08;;;;;;;309.95;111.82;;;;;;;;;;10359972;28;20086;-60
2021/01/20 13:13:06;;;;;;;282.52;118.53;;;;;;;;;;10360071;28;20068;-60
2021/01/20 13:18:05;;;;;;;83.88;46.83;;;;;;;;;;10359723;28;20064;-60
2021/01/20 13:23:02;;;;;;;57.75;34.65;;;;;;;;;;10359490;28;20032;-60
2021/01/20 13:27:59;;;;;;;41.55;28.23;;;;;;;;;;10359325;28;20074;-60
2021/01/20 13:32:58;;;;;;;49.70;30.60;;;;;;;;;;10359086;28;20048;-60
2021/01/20 13:37:55;;;;;;;79.28;45.53;;;;;;;;;;10358841;28;20074;-61
2021/01/20 13:42:53;;;;;;;37.42;22.23;;;;;;;;;;10359333;28;20072;-61
2021/01/20 13:47:50;;;;;;;38.17;25.08;;;;;;;;;;10358930;28;20480;-61
2021/01/20 13:52:49;;;;;;;199.93;101.00;;;;;;;;;;10359157;28;20043;-60
2021/01/20 13:57:46;;;;;;;35.97;24.80;;;;;;;;;;10358092;28;20500;-60
2021/01/20 14:02:43;;;;;;;25.95;17.80;;;;;;;;;;10357406;28;20044;-60
2021/01/20 14:07:41;;;;;;;38.85;27.80;;;;;;;;;;10357633;28;20075;-60
2021/01/20 14:12:39;;;;;;;67.35;40.03;;;;;;;;;;10357695;28;20457;-59
2021/01/20 14:17:36;;;;;;;63.95;41.85;;;;;;;;;;10357419;28;20063;-60
2021/01/20 14:22:34;;;;;;;104.82;59.08;;;;;;;;;;10357147;28;20044;-60
2021/01/20 14:27:33;;;;;;;124.22;71.97;;;;;;;;;;10358637;28;20079;-60
2021/01/20 14:32:32;;;;;;;117.13;68.47;;;;;;;;;;10357613;28;20043;-60
2021/01/20 14:37:29;;;;;;;45.08;29.35;;;;;;;;;;10357155;28;20055;-60
2021/01/20 14:42:26;;;;;;;24.38;19.00;;;;;;;;;;10358138;28;20047;-60
2021/01/20 14:47:25;;;;;;;25.30;17.73;;;;;;;;;;10357378;28;20084;-60
2021/01/20 14:52:25;;;;;;;41.95;22.83;;;;;;;;;;10357680;28;20040;-60
2021/01/20 14:57:22;;;;;;;29.45;18.98;;;;;;;;;;10357870;28;20047;-60
2021/01/20 15:02:20;;;;;;;71.40;40.25;;;;;;;;;;10357551;28;20044;-61
2021/01/20 15:07:17;;;;;;;40.70;27.05;;;;;;;;;;10357442;28;20073;-58
2021/01/20 15:12:16;;;;;;;77.72;45.42;;;;;;;;;;10358624;28;20084;-61
2021/01/20 15:17:13;;;;;;;293.88;147.00;;;;;;;;;;10365434;28;20060;-59
2021/01/20 15:22:11;;;;;;;162.82;80.18;;;;;;;;;;10365268;28;20493;-60
2021/01/20 15:27:08;;;;;;;230.90;123.20;;;;;;;;;;10364935;28;20085;-60
2021/01/20 15:32:07;;;;;;;302.00;152.60;;;;;;;;;;10364734;28;20397;-60
2021/01/20 15:37:04;;;;;;;267.02;133.32;;;;;;;;;;10364544;28;20068;-60
2021/01/20 15:42:01;;;;;;;108.90;54.75;;;;;;;;;;10363857;28;20044;-60
2021/01/20 15:46:59;;;;;;;214.95;100.38;;;;;;;;;;10363886;28;20087;-60
2021/01/20 15:51:57;;;;;;;216.40;99.97;;;;;;;;;;10363593;28;20070;-60
2021/01/20 15:56:55;;;;;;;185.20;93.90;;;;;;;;;;10339278;28;20500;-59
2021/01/20 16:01:55;;;;;;;286.17;134.15;;;;;;;;;;10333564;28;20064;-60
2021/01/20 16:06:53;;;;;;;359.30;145.82;;;;;;;;;;10341997;28;20499;-58
2021/01/20 16:11:54;;;;;;;142.65;62.75;;;;;;;;;;10344322;28;20087;-59
2021/01/20 16:16:52;;;;;;;122.25;54.35;;;;;;;;;;10349852;28;20598;-60
2021/01/20 16:21:49;;;;;;;451.80;190.52;;;;;;;;;;10359574;28;20074;-59
2021/01/20 16:26:47;;;;;;;81.32;39.05;;;;;;;;;;10361342;28;20094;-59
2021/01/20 16:31:45;;;;;;;334.50;144.63;;;;;;;;;;10362347;28;20063;-58
2021/01/20 16:36:44;;;;;;;231.63;111.20;;;;;;;;;;10362304;28;20083;-59
2021/01/20 16:41:42;;;;;;;183.75;86.32;;;;;;;;;;10361846;28;20052;-55
2021/01/20 16:46:39;;;;;;;133.18;63.92;;;;;;;;;;10361825;28;20177;-58
2021/01/20 16:51:38;;;;;;;97.10;53.97;;;;;;;;;;10361562;28;20048;-60
2021/01/20 16:56:35;;;;;;;224.90;124.90;;;;;;;;;;10361068;28;20044;-59
2021/01/20 17:01:32;;;;;;;110.88;62.95;;;;;;;;;;10361205;28;20069;-60
2021/01/20 17:06:29;;;;;;;119.68;65.65;;;;;;;;;;10361110;28;20080;-58
2021/01/20 17:11:28;;;;;;;84.10;49.53;;;;;;;;;;10359886;28;20080;-60
2021/01/20 17:16:25;;;;;;;84.82;48.35;;;;;;;;;;10360799;28;20553;-60
2021/01/20 17:21:23;;;;;;;108.78;56.63;;;;;;;;;;10360961;28;20079;-60
2021/01/20 17:26:20;;;;;;;110.28;60.25;;;;;;;;;;10360216;28;20117;-60
2021/01/20 17:31:18;;;;;;;181.98;84.15;;;;;;;;;;10360128;28;20040;-61
2021/01/20 17:36:16;;;;;;;250.70;126.07;;;;;;;;;;10358958;28;20044;-60
2021/01/20 17:41:13;;;;;;;274.13;136.73;;;;;;;;;;10359813;28;20040;-59
2021/01/20 17:46:11;;;;;;;279.60;139.05;;;;;;;;;;10359382;28;20044;-60
2021/01/20 17:51:09;;;;;;;411.83;182.98;;;;;;;;;;10359306;28;20044;-60
2021/01/20 17:56:06;;;;;;;148.68;89.80;;;;;;;;;;10359393;28;20083;-60
2021/01/20 18:01:04;;;;;;;262.25;133.07;;;;;;;;;;10359117;28;20217;-61
2021/01/20 18:06:02;;;;;;;284.85;140.30;;;;;;;;;;10358723;28;20082;-60
2021/01/20 18:11:00;;;;;;;174.52;91.47;;;;;;;;;;10357550;28;20078;-61
2021/01/20 18:15:57;;;;;;;63.55;47.22;;;;;;;;;;10356852;28;20086;-59
2021/01/20 18:20:55;;;;;;;46.15;29.20;;;;;;;;;;10358267;28;20044;-60
2021/01/20 18:25:53;;;;;;;261.55;126.18;;;;;;;;;;10357750;28;20052;-61
2021/01/20 18:30:51;;;;;;;170.20;64.65;;;;;;;;;;10358615;28;20086;-60
2021/01/20 18:35:48;;;;;;;140.63;54.08;;;;;;;;;;10357449;28;20055;-59
2021/01/20 18:40:46;;;;;;;186.90;75.13;;;;;;;;;;10356784;28;20040;-60
2021/01/20 18:45:43;;;;;;;206.88;83.10;;;;;;;;;;10355900;28;20067;-61
2021/01/20 18:50:41;;;;;;;103.85;48.15;;;;;;;;;;10364492;28;20516;-58
2021/01/20 18:55:38;;;;;;;152.90;67.47;;;;;;;;;;10365806;28;20083;-59
2021/01/20 19:00:36;;;;;;;101.28;47.25;;;;;;;;;;10365242;28;20040;-59
2021/01/20 19:05:33;;;;;;;189.32;74.65;;;;;;;;;;10365089;28;20040;-60
2021/01/20 19:10:31;;;;;;;215.23;77.60;;;;;;;;;;10364635;28;20535;-59
2021/01/20 19:15:29;;;;;;;100.22;38.72;;;;;;;;;;10362811;28;20036;-59
2021/01/20 19:20:27;;;;;;;87.78;38.00;;;;;;;;;;10364633;28;20467;-60
2021/01/20 19:25:25;;;;;;;111.13;48.00;;;;;;;;;;10364262;28;20425;-60
2021/01/20 19:30:26;;;;;;;89.25;41.63;;;;;;;;;;10364525;28;20075;-60
2021/01/20 19:35:24;;;;;;;78.18;33.28;;;;;;;;;;10363799;28;20044;-61
2021/01/20 19:40:21;;;;;;;69.53;30.70;;;;;;;;;;10363575;28;20036;-60
2021/01/20 19:45:18;;;;;;;207.43;132.07;;;;;;;;;;10363733;28;20048;-60
2021/01/20 19:50:17;;;;;;;391.27;192.90;;;;;;;;;;10363109;28;20072;-60
2021/01/20 19:55:14;;;;;;;266.50;124.57;;;;;;;;;;10363362;28;20067;-59
2021/01/20 20:00:12;;;;;;;212.63;104.30;;;;;;;;;;10361759;28;20047;-59
2021/01/20 20:05:10;;;;;;;366.42;191.93;;;;;;;;;;10363819;28;20076;-60
2021/01/20 20:10:09;;;;;;;159.15;71.25;;;;;;;;;;10362345;28;20548;-60
2021/01/20 20:15:07;;;;;;;57.22;32.03;;;;;;;;;;10362309;28;20105;-60
2021/01/20 20:20:05;;;;;;;105.15;52.80;;;;;;;;;;10362641;28;20095;-61
2021/01/20 20:25:03;;;;;;;197.57;96.82;;;;;;;;;;10361730;28;20037;-60
2021/01/20 20:30:01;;;;;;;52.70;26.98;;;;;;;;;;10361385;28;20087;-57
2021/01/20 20:34:58;;;;;;;258.15;123.78;;;;;;;;;;10356450;28;20066;-58
2021/01/20 20:39:56;;;;;;;129.35;62.42;;;;;;;;;;10356462;28;20071;-60
2021/01/20 20:44:54;;;;;;;56.63;30.63;;;;;;;;;;10358794;28;20075;-60
2021/01/20 20:49:53;;;;;;;220.52;98.03;;;;;;;;;;10328005;28;20082;-59
2021/01/20 20:54:51;;;;;;;296.33;116.13;;;;;;;;;;10335459;28;20529;-60
2021/01/20 20:59:48;;;;;;;95.32;42.97;;;;;;;;;;10337851;28;20074;-60
2021/01/20 21:04:45;;;;;;;283.80;119.65;;;;;;;;;;10340927;28;20079;-59
2021/01/20 21:09:43;;;;;;;261.60;111.75;;;;;;;;;;10337163;28;20064;-60
2021/01/20 21:14:42;;;;;;;207.18;88.30;;;;;;;;;;10337186;28;20122;-59
2021/01/20 21:19:39;;;;;;;333.42;146.02;;;;;;;;;;10339152;28;20053;-60
2021/01/20 21:24:37;;;;;;;195.30;90.65;;;;;;;;;;10337082;28;20078;-61
2021/01/20 21:29:35;;;;;;;63.67;33.83;;;;;;;;;;10336313;28;20186;-60
2021/01/20 21:34:32;;;;;;;131.88;68.45;;;;;;;;;;10337586;28;20070;-60
2021/01/20 21:39:29;;;;;;;108.75;57.20;;;;;;;;;;10337724;28;20080;-60
2021/01/20 21:44:27;;;;;;;73.05;40.42;;;;;;;;;;10338400;28;20060;-60
2021/01/20 21:49:25;;;;;;;30.70;21.48;;;;;;;;;;10337097;28;20067;-58
2021/01/20 21:54:22;;;;;;;16.38;11.65;;;;;;;;;;10336925;28;20466;-58
2021/01/20 21:59:20;;;;;;;26.05;15.27;;;;;;;;;;10338588;28;20064;-60
2021/01/20 22:04:17;;;;;;;26.50;15.07;;;;;;;;;;10336949;28;20075;-54
2021/01/20 22:09:15;;;;;;;40.90;19.77;;;;;;;;;;10336502;28;20071;-60
2021/01/20 22:14:13;;;;;;;20.13;13.20;;;;;;;;;;10352969;28;20079;-61
2021/01/20 22:19:10;;;;;;;19.75;10.40;;;;;;;;;;10324460;28;20071;-59
2021/01/20 22:24:08;;;;;;;15.82;9.05;;;;;;;;;;10316442;28;20059;-59
2021/01/20 22:29:06;;;;;;;18.25;10.77;;;;;;;;;;10315175;28;20076;-57
2021/01/20 22:34:03;;;;;;;20.35;13.35;;;;;;;;;;10317195;28;20072;-57
2021/01/20 22:39:01;;;;;;;17.58;11.98;;;;;;;;;;10317108;28;20040;-61
2021/01/20 22:43:58;;;;;;;31.52;16.48;;;;;;;;;;10316823;28;20044;-57
2021/01/20 22:48:57;;;;;;;24.00;13.18;;;;;;;;;;10316545;28;20084;-55
2021/01/20 22:53:57;;;;;;;36.80;19.45;;;;;;;;;;10330301;28;20154;-59
2021/01/20 22:58:55;;;;;;;16.08;11.15;;;;;;;;;;10341601;28;20079;-59
2021/01/20 23:03:52;;;;;;;14.43;9.00;;;;;;;;;;10324858;28;20091;-62
2021/01/20 23:08:50;;;;;;;14.75;9.68;;;;;;;;;;10355948;28;20072;-61
2021/01/20 23:13:48;;;;;;;15.25;9.43;;;;;;;;;;10355477;28;20040;-61
2021/01/20 23:18:45;;;;;;;18.10;10.73;;;;;;;;;;10355186;28;20090;-60
2021/01/20 23:23:42;;;;;;;11.45;8.73;;;;;;;;;;10355470;28;20051;-60
2021/01/20 23:28:40;;;;;;;14.50;8.38;;;;;;;;;;10353582;28;20059;-61
2021/01/20 23:33:38;;;;;;;13.70;9.65;;;;;;;;;;10356942;28;20091;-61
2021/01/20 23:38:36;;;;;;;120.95;55.95;;;;;;;;;;10363074;28;20072;-61
2021/01/20 23:43:33;;;;;;;41.13;23.58;;;;;;;;;;10362731;28;20530;-62
2021/01/20 23:48:31;;;;;;;47.78;28.65;;;;;;;;;;10362670;28;20076;-59
2021/01/20 23:53:30;;;;;;;38.08;24.65;;;;;;;;;;10362271;28;20086;-59
2021/01/20 23:58:27;;;;;;;40.00;24.85;;;;;;;;;;10361816;28;20087;-59
